createdAt,value
2023-05-17T00:01:27.953Z,94845.47
2023-05-17T00:04:13.992Z,94841.91
2023-05-17T00:06:59.791Z,94849.00
2023-05-17T00:09:47.401Z,94845.78
2023-05-17T00:12:35.062Z,94841.16
2023-05-17T00:15:21.487Z,94824.59
2023-05-17T00:18:07.719Z,94820.81
2023-05-17T00:20:53.741Z,94816.06
2023-05-17T00:23:39.631Z,94820.81
2023-05-17T00:26:25.705Z,94816.06
2023-05-17T00:29:11.906Z,94813.69
2023-05-17T00:31:58.031Z,94817.56
2023-05-17T00:34:43.897Z,94820.69
2023-05-17T00:37:34.803Z,94818.16
2023-05-17T00:40:20.785Z,94829.06
2023-05-17T00:43:07.242Z,94817.22
2023-05-17T00:45:53.348Z,94824.25
2023-05-17T00:48:39.836Z,94812.47
2023-05-17T00:51:26.159Z,94814.81
2023-05-17T00:54:12.546Z,94816.34
2023-05-17T00:57:00.923Z,94813.28
2023-05-17T00:59:47.687Z,94818.72
2023-05-17T01:02:33.741Z,94811.66
2023-05-17T01:05:21.068Z,94816.22
2023-05-17T01:08:07.219Z,94812.63
2023-05-17T01:10:59.113Z,94800.88
2023-05-17T01:14:06.600Z,94805.47
2023-05-17T01:17:06.668Z,94802.63
2023-05-17T01:20:13.168Z,94803.31
2023-05-17T01:23:25.170Z,94811.81
2023-05-17T01:26:39.453Z,94808.13
2023-05-17T01:29:29.072Z,94801.03
2023-05-17T01:32:16.412Z,94803.34
2023-05-17T01:35:05.682Z,94807.44
2023-05-17T01:37:54.529Z,94809.63
2023-05-17T01:41:06.428Z,94822.81
2023-05-17T01:44:02.479Z,94823.09
2023-05-17T01:46:50.091Z,94830.13
2023-05-17T01:49:38.929Z,94824.25
2023-05-17T01:52:31.936Z,94822.53
2023-05-17T01:55:37.118Z,94825.25
2023-05-17T01:58:26.306Z,94820.94
2023-05-17T02:01:13.728Z,94820.06
2023-05-17T02:03:59.832Z,94825.50
2023-05-17T02:06:46.152Z,94822.34
2023-05-17T02:09:32.165Z,94822.19
2023-05-17T02:12:18.485Z,94831.47
2023-05-17T02:15:05.131Z,94834.91
2023-05-17T02:17:51.414Z,94822.00
2023-05-17T02:20:37.453Z,94813.41
2023-05-17T02:23:25.058Z,94825.88
2023-05-17T02:26:12.234Z,94832.91
2023-05-17T02:28:59.018Z,94829.75
2023-05-17T02:31:46.286Z,94821.38
2023-05-17T02:34:32.449Z,94818.97
2023-05-17T02:37:18.924Z,94822.81
2023-05-17T02:40:09.554Z,94833.56
2023-05-17T02:42:55.348Z,94830.81
2023-05-17T02:45:41.262Z,94832.22
2023-05-17T02:48:27.002Z,94820.28
2023-05-17T02:51:13.167Z,94842.94
2023-05-17T02:53:59.622Z,94838.09
2023-05-17T02:56:46.164Z,94836.44
2023-05-17T02:59:33.535Z,94847.34
2023-05-17T03:02:20.151Z,94832.41
2023-05-17T03:05:06.395Z,94851.09
2023-05-17T03:07:52.346Z,94864.34
2023-05-17T03:10:38.268Z,94863.50
2023-05-17T03:13:25.617Z,94854.78
2023-05-17T03:16:11.814Z,94858.75
2023-05-17T03:18:58.342Z,94855.47
2023-05-17T03:21:44.863Z,94867.94
2023-05-17T03:24:32.135Z,94847.47
2023-05-17T03:27:19.432Z,94854.75
2023-05-17T03:30:06.342Z,94860.47
2023-05-17T03:32:57.665Z,94864.31
2023-05-17T03:35:44.466Z,94859.56
2023-05-17T03:38:31.048Z,94861.50
2023-05-17T03:41:17.344Z,94869.75
2023-05-17T03:44:03.985Z,94875.88
2023-05-17T03:46:57.141Z,94882.91
2023-05-17T03:49:43.878Z,94877.47
2023-05-17T03:52:30.899Z,94880.88
2023-05-17T03:55:18.140Z,94882.91
2023-05-17T03:58:04.162Z,94894.47
2023-05-17T04:00:50.353Z,94887.47
2023-05-17T04:03:37.965Z,94896.03
2023-05-17T04:06:24.810Z,94898.34
2023-05-17T04:09:13.971Z,94904.56
2023-05-17T04:11:59.893Z,94906.13
2023-05-17T04:14:46.001Z,94918.69
2023-05-17T04:17:32.173Z,94910.53
2023-05-17T04:20:19.014Z,94905.34
2023-05-17T04:23:05.245Z,94924.13
2023-05-17T04:25:53.952Z,94920.09
2023-05-17T04:28:41.339Z,94927.09
2023-05-17T04:31:32.022Z,94931.06
2023-05-17T04:34:19.529Z,94924.81
2023-05-17T04:37:06.126Z,94934.22
2023-05-17T04:39:55.221Z,94934.22
2023-05-17T04:42:41.414Z,94926.22
2023-05-17T04:45:28.067Z,94934.13
2023-05-17T04:48:15.656Z,94937.19
2023-05-17T04:51:04.837Z,94935.69
2023-05-17T04:53:51.555Z,94936.16
2023-05-17T04:56:37.900Z,94934.69
2023-05-17T04:59:28.787Z,94924.66
2023-05-17T05:02:15.147Z,94927.03
2023-05-17T05:05:01.629Z,94946.28
2023-05-17T05:07:47.934Z,94935.31
2023-05-17T05:10:34.062Z,94945.41
2023-05-17T05:13:22.045Z,94935.91
2023-05-17T05:16:08.518Z,94943.03
2023-05-17T05:18:55.852Z,94942.22
2023-05-17T05:21:41.862Z,94946.97
2023-05-17T05:24:28.073Z,94951.81
2023-05-17T05:27:14.926Z,94941.72
2023-05-17T05:30:02.364Z,94954.03
2023-05-17T05:32:52.571Z,94948.34
2023-05-17T05:35:39.104Z,94951.88
2023-05-17T05:38:26.322Z,94956.34
2023-05-17T05:41:12.434Z,94959.63
2023-05-17T05:44:00.023Z,94947.94
2023-05-17T05:46:46.092Z,94952.66
2023-05-17T05:49:33.424Z,94964.44
2023-05-17T05:52:19.354Z,94963.75
2023-05-17T05:55:05.980Z,94960.59
2023-05-17T05:57:52.164Z,94971.47
2023-05-17T06:00:37.986Z,94970.78
2023-05-17T06:03:24.760Z,94959.00
2023-05-17T06:06:11.445Z,94981.84
2023-05-17T06:08:59.677Z,94959.38
2023-05-17T06:11:45.852Z,94975.19
2023-05-17T06:14:31.784Z,94977.63
2023-05-17T06:17:17.900Z,94977.16
2023-05-17T06:20:04.286Z,94963.19
2023-05-17T06:22:50.232Z,94971.19
2023-05-17T06:25:36.090Z,94963.44
2023-05-17T06:28:22.008Z,94980.41
2023-05-17T06:31:07.815Z,94972.25
2023-05-17T06:33:53.612Z,94980.56
2023-05-17T06:36:40.796Z,94988.13
2023-05-17T06:39:26.862Z,94985.31
2023-05-17T06:42:12.760Z,94995.25
2023-05-17T06:45:00.586Z,94994.34
2023-05-17T06:47:46.643Z,94989.78
2023-05-17T06:50:33.002Z,94992.59
2023-05-17T06:53:19.081Z,94986.63
2023-05-17T06:56:05.348Z,94989.78
2023-05-17T06:58:51.647Z,94987.06
2023-05-17T07:01:40.041Z,94989.53
2023-05-17T07:04:29.374Z,94994.34
2023-05-17T07:07:15.635Z,94991.28
2023-05-17T07:10:01.714Z,94998.03
2023-05-17T07:12:47.751Z,94988.69
2023-05-17T07:15:33.812Z,94977.78
2023-05-17T07:18:20.101Z,94986.91
2023-05-17T07:21:06.237Z,95003.09
2023-05-17T07:23:52.516Z,95004.69
2023-05-17T07:26:38.695Z,94996.50
2023-05-17T07:29:24.862Z,94992.34
2023-05-17T07:32:12.208Z,94985.03
2023-05-17T07:34:59.571Z,94984.75
2023-05-17T07:37:46.123Z,94977.00
2023-05-17T07:40:32.039Z,94974.03
2023-05-17T07:43:18.279Z,94976.81
2023-05-17T07:46:04.798Z,94975.03
2023-05-17T07:48:51.396Z,94974.31
2023-05-17T07:51:37.844Z,94977.19
2023-05-17T07:54:30.214Z,94972.94
2023-05-17T07:57:19.660Z,94972.31
2023-05-17T08:00:09.107Z,94965.69
2023-05-17T08:02:59.087Z,94952.91
2023-05-17T08:05:45.457Z,94960.09
2023-05-17T08:08:31.380Z,94967.19
2023-05-17T08:11:18.294Z,94952.31
2023-05-17T08:14:05.285Z,94964.97
2023-05-17T08:16:54.464Z,94944.69
2023-05-17T08:19:40.629Z,94936.13
2023-05-17T08:22:27.554Z,94944.03
2023-05-17T08:25:13.753Z,94946.53
2023-05-17T08:28:00.248Z,94941.50
2023-05-17T08:30:46.159Z,94942.00
2023-05-17T08:33:32.843Z,94936.94
2023-05-17T08:36:18.703Z,94931.19
2023-05-17T08:39:05.127Z,94925.78
2023-05-17T08:41:50.853Z,94921.19
2023-05-17T08:44:38.707Z,94933.06
2023-05-17T08:47:29.882Z,94937.09
2023-05-17T08:50:17.558Z,94925.41
2023-05-17T08:53:03.722Z,94921.53
2023-05-17T08:55:51.058Z,94931.84
2023-05-17T08:58:52.336Z,94932.69
2023-05-17T09:01:44.042Z,94916.91
2023-05-17T09:04:31.400Z,94921.50
2023-05-17T09:07:17.555Z,94914.81
2023-05-17T09:10:05.933Z,94934.59
2023-05-17T09:12:53.145Z,94926.06
2023-05-17T09:15:42.956Z,94929.28
2023-05-17T09:18:33.280Z,94930.56
2023-05-17T09:21:19.329Z,94924.03
2023-05-17T09:24:07.683Z,94929.22
2023-05-17T09:26:54.252Z,94919.53
2023-05-17T09:29:40.181Z,94919.56
2023-05-17T09:32:27.274Z,94914.16
2023-05-17T09:35:13.883Z,94915.81
2023-05-17T09:38:06.854Z,94912.84
2023-05-17T09:40:54.772Z,94911.69
2023-05-17T09:43:41.232Z,94902.44
2023-05-17T09:46:28.064Z,94903.69
2023-05-17T09:49:15.008Z,94892.31
2023-05-17T09:52:06.556Z,94903.84
2023-05-17T09:54:57.155Z,94899.19
2023-05-17T09:57:44.419Z,94902.09
2023-05-17T10:00:31.528Z,94892.78
2023-05-17T10:03:18.152Z,94893.22
2023-05-17T10:06:09.866Z,94905.03
2023-05-17T10:08:59.234Z,94897.22
2023-05-17T10:11:47.258Z,94897.28
2023-05-17T10:14:35.451Z,94889.09
2023-05-17T10:17:21.999Z,94887.53
2023-05-17T10:20:10.525Z,94891.91
2023-05-17T10:22:58.600Z,94890.00
2023-05-17T10:25:45.730Z,94886.13
2023-05-17T10:28:31.826Z,94879.50
2023-05-17T10:31:18.201Z,94879.94
2023-05-17T10:34:06.642Z,94885.53
2023-05-17T10:36:53.060Z,94877.72
2023-05-17T10:39:39.213Z,94874.22
2023-05-17T10:42:26.720Z,94868.78
2023-05-17T10:45:13.970Z,94876.28
2023-05-17T10:48:03.882Z,94865.69
2023-05-17T10:50:54.910Z,94861.81
2023-05-17T10:54:12.507Z,94869.69
2023-05-17T10:57:06.471Z,94862.63
2023-05-17T11:00:00.808Z,94862.66
2023-05-17T11:02:49.045Z,94857.56
2023-05-17T11:05:35.325Z,94857.22
2023-05-17T11:08:21.804Z,94860.41
2023-05-17T11:11:21.044Z,94852.56
2023-05-17T11:14:11.621Z,94839.66
2023-05-17T11:16:58.404Z,94838.50
2023-05-17T11:19:57.421Z,94842.41
2023-05-17T11:23:05.133Z,94836.91
2023-05-17T11:25:51.461Z,94831.03
2023-05-17T11:28:39.371Z,94837.31
2023-05-17T11:31:35.384Z,94834.16
2023-05-17T11:34:25.256Z,94825.94
2023-05-17T11:37:13.197Z,94821.22
2023-05-17T11:40:07.016Z,94829.88
2023-05-17T11:43:12.444Z,94818.88
2023-05-17T11:46:02.561Z,94812.16
2023-05-17T11:48:51.012Z,94819.59
2023-05-17T11:51:37.199Z,94811.34
2023-05-17T11:54:24.520Z,94817.19
2023-05-17T11:57:12.735Z,94812.47
2023-05-17T12:00:05.042Z,94802.25
2023-05-17T12:03:25.660Z,94809.34
2023-05-17T12:06:13.741Z,94807.75
2023-05-17T12:09:00.397Z,94809.34
2023-05-17T12:11:46.437Z,94802.66
2023-05-17T12:14:33.127Z,94799.13
2023-05-17T12:17:25.595Z,94792.44
2023-05-17T12:20:11.808Z,94778.63
2023-05-17T12:22:57.820Z,94777.41
2023-05-17T12:25:43.659Z,94780.91
2023-05-17T12:28:29.957Z,94784.78
2023-05-17T12:31:18.493Z,94775.28
2023-05-17T12:34:09.376Z,94779.16
2023-05-17T12:36:56.002Z,94773.19
2023-05-17T12:39:42.034Z,94768.38
2023-05-17T12:42:28.265Z,94770.69
2023-05-17T12:45:14.584Z,94752.13
2023-05-17T12:48:01.123Z,94750.09
2023-05-17T12:50:49.217Z,94749.63
2023-05-17T12:53:39.572Z,94748.78
2023-05-17T12:56:28.360Z,94750.00
2023-05-17T12:59:20.977Z,94748.75
2023-05-17T13:02:09.922Z,94747.56
2023-05-17T13:05:18.899Z,94751.00
2023-05-17T13:08:24.741Z,94745.47
2023-05-17T13:11:14.791Z,94746.19
2023-05-17T13:14:01.487Z,94733.66
2023-05-17T13:16:47.583Z,94735.94
2023-05-17T13:19:36.099Z,94730.31
2023-05-17T13:22:22.115Z,94726.38
2023-05-17T13:25:08.474Z,94727.84
2023-05-17T13:27:55.646Z,94718.72
2023-05-17T13:30:45.990Z,94728.38
2023-05-17T13:33:32.428Z,94722.28
2023-05-17T13:36:18.505Z,94709.91
2023-05-17T13:39:04.849Z,94716.81
2023-05-17T13:41:50.927Z,94712.38
2023-05-17T13:44:38.453Z,94704.00
2023-05-17T13:47:24.904Z,94707.81
2023-05-17T13:50:12.182Z,94704.53
2023-05-17T13:52:58.709Z,94703.63
2023-05-17T13:55:44.913Z,94700.81
2023-05-17T13:58:35.426Z,94693.34
2023-05-17T14:01:22.584Z,94689.06
2023-05-17T14:04:08.864Z,94691.91
2023-05-17T14:06:55.382Z,94684.91
2023-05-17T14:09:42.215Z,94685.78
2023-05-17T14:12:28.820Z,94686.72
2023-05-17T14:15:15.309Z,94696.19
2023-05-17T14:18:01.379Z,94690.66
2023-05-17T14:20:47.777Z,94684.19
2023-05-17T14:23:34.923Z,94693.94
2023-05-17T14:26:21.794Z,94695.00
2023-05-17T14:29:08.009Z,94695.16
2023-05-17T14:31:54.257Z,94687.97
2023-05-17T14:34:40.316Z,94687.41
2023-05-17T14:37:26.512Z,94690.72
2023-05-17T14:40:12.822Z,94695.25
2023-05-17T14:42:59.119Z,94703.03
2023-05-17T14:45:45.296Z,94700.41
2023-05-17T14:48:31.785Z,94708.34
2023-05-17T14:51:19.202Z,94710.34
2023-05-17T14:54:06.186Z,94704.63
2023-05-17T14:56:53.584Z,94702.03
2023-05-17T14:59:40.270Z,94708.25
2023-05-17T15:02:26.706Z,94705.44
2023-05-17T15:05:13.128Z,94703.44
2023-05-17T15:07:59.420Z,94712.09
2023-05-17T15:10:45.572Z,94714.44
2023-05-17T15:13:31.603Z,94710.84
2023-05-17T15:16:18.139Z,94715.13
2023-05-17T15:19:04.695Z,94718.19
2023-05-17T15:21:50.778Z,94722.72
2023-05-17T15:24:37.676Z,94717.81
2023-05-17T15:27:23.702Z,94720.44
2023-05-17T15:30:13.207Z,94718.56
2023-05-17T15:32:59.984Z,94722.69
2023-05-17T15:35:46.168Z,94715.78
2023-05-17T15:38:32.045Z,94723.78
2023-05-17T15:41:21.784Z,94731.78
2023-05-17T15:44:09.105Z,94735.03
2023-05-17T15:46:55.112Z,94732.75
2023-05-17T15:49:42.360Z,94726.97
2023-05-17T15:52:28.382Z,94734.16
2023-05-17T15:55:14.682Z,94731.06
2023-05-17T15:58:00.814Z,94737.41
2023-05-17T16:00:47.012Z,94738.63
2023-05-17T16:03:38.023Z,94743.81
2023-05-17T16:06:36.090Z,94741.16
2023-05-17T16:09:22.419Z,94753.78
2023-05-17T16:12:10.362Z,94747.13
2023-05-17T16:15:04.674Z,94749.13
2023-05-17T16:17:55.106Z,94759.00
2023-05-17T16:20:42.819Z,94757.06
2023-05-17T16:24:20.101Z,94760.66
2023-05-17T16:27:08.151Z,94765.84
2023-05-17T16:34:50.082Z,94760.81
2023-05-17T16:43:27.739Z,94795.09
2023-05-17T16:46:13.905Z,94795.16
2023-05-17T16:48:59.754Z,94798.34
2023-05-17T16:51:45.788Z,94813.31
2023-05-17T16:59:15.983Z,94820.44
2023-05-17T17:02:02.308Z,94816.50
2023-05-17T17:04:48.153Z,94832.63
2023-05-17T17:07:43.351Z,94835.38
2023-05-17T17:10:29.811Z,94838.09
2023-05-17T17:13:16.589Z,94833.41
2023-05-17T17:16:02.565Z,94840.03
2023-05-17T17:18:49.874Z,94840.81
2023-05-17T17:21:36.874Z,94843.56
2023-05-17T17:24:22.858Z,94842.38
2023-05-17T17:28:13.951Z,94847.88
2023-05-17T17:35:32.293Z,94851.00
2023-05-17T17:38:18.277Z,94841.94
2023-05-17T17:41:04.337Z,94861.22
2023-05-17T17:44:01.704Z,94863.56
2023-05-17T17:46:47.849Z,94861.97
2023-05-17T17:49:36.052Z,94850.16
2023-05-17T17:52:22.048Z,94874.47
2023-05-17T17:55:10.259Z,94872.09
2023-05-17T17:57:56.468Z,94876.00
2023-05-17T18:00:42.835Z,94880.69
2023-05-17T18:03:28.758Z,94881.06
2023-05-17T18:06:14.857Z,94878.28
2023-05-17T18:09:02.000Z,94881.84
2023-05-17T18:11:49.435Z,94892.44
2023-05-17T18:14:47.352Z,94906.50
2023-05-17T18:17:33.391Z,94895.91
2023-05-17T18:20:20.084Z,94909.63
2023-05-17T18:23:07.362Z,94916.63
2023-05-17T18:25:53.663Z,94910.31
2023-05-17T18:28:42.829Z,94921.25
2023-05-17T18:31:29.077Z,94924.38
2023-05-17T18:34:15.627Z,94921.22
2023-05-17T18:37:02.173Z,94926.72
2023-05-17T18:39:48.178Z,94940.03
2023-05-17T18:42:34.088Z,94940.78
2023-05-17T18:45:20.447Z,94933.66
2023-05-17T18:48:06.573Z,94953.66
2023-05-17T18:50:53.157Z,94956.38
2023-05-17T18:53:39.305Z,94946.94
2023-05-17T18:56:26.073Z,94962.63
2023-05-17T18:59:12.155Z,94956.28
2023-05-17T19:01:58.579Z,94965.75
2023-05-17T19:04:44.945Z,94958.22
2023-05-17T19:07:31.272Z,94970.44
2023-05-17T19:10:18.557Z,94985.72
2023-05-17T19:13:06.852Z,94985.25
2023-05-17T19:15:53.258Z,94979.38
2023-05-17T19:18:39.276Z,94984.47
2023-05-17T19:21:25.339Z,94982.09
2023-05-17T19:24:11.550Z,94977.72
2023-05-17T19:26:57.784Z,94986.34
2023-05-17T19:29:43.607Z,94985.88
2023-05-17T19:32:33.177Z,94993.69
2023-05-17T19:35:19.482Z,94996.41
2023-05-17T19:38:05.585Z,94996.78
2023-05-17T19:40:51.891Z,95003.78
2023-05-17T19:43:38.576Z,95019.03
2023-05-17T19:46:24.568Z,95019.81
2023-05-17T19:49:12.837Z,95028.03
2023-05-17T19:52:01.439Z,95035.84
2023-05-17T19:54:48.298Z,95038.94
2023-05-17T19:57:34.196Z,95049.13
2023-05-17T20:00:21.030Z,95049.84
2023-05-17T20:03:07.433Z,95048.28
2023-05-17T20:05:55.313Z,95060.75
2023-05-17T20:08:42.058Z,95055.16
2023-05-17T20:11:28.138Z,95062.22
2023-05-17T20:14:16.177Z,95066.13
2023-05-17T20:17:02.281Z,95067.63
2023-05-17T20:19:48.477Z,95074.75
2023-05-17T20:22:36.226Z,95076.28
2023-05-17T20:25:24.139Z,95066.06
2023-05-17T20:28:10.288Z,95075.44
2023-05-17T20:30:56.297Z,95084.06
2023-05-17T20:33:44.219Z,95080.06
2023-05-17T20:36:31.463Z,95082.31
2023-05-17T20:39:18.098Z,95082.69
2023-05-17T20:42:05.464Z,95083.84
2023-05-17T20:44:53.861Z,95094.06
2023-05-17T20:47:39.754Z,95088.94
2023-05-17T20:50:25.763Z,95086.94
2023-05-17T20:53:11.928Z,95093.94
2023-05-17T20:55:58.562Z,95091.63
2023-05-17T20:58:44.371Z,95101.38
2023-05-17T21:01:31.331Z,95091.56
2023-05-17T21:04:18.819Z,95080.53
2023-05-17T21:07:05.919Z,95087.94
2023-05-17T21:09:52.271Z,95087.53
2023-05-17T21:12:38.405Z,95087.47
2023-05-17T21:15:26.005Z,95088.22
2023-05-17T21:18:12.446Z,95086.59
2023-05-17T21:20:59.325Z,95089.25
2023-05-17T21:23:46.701Z,95092.34
2023-05-17T21:26:32.936Z,95095.38
2023-05-17T21:29:19.095Z,95098.13
2023-05-17T21:32:05.677Z,95094.13
2023-05-17T21:34:53.791Z,95103.84
2023-05-17T21:37:41.985Z,95101.06
2023-05-17T21:40:27.938Z,95098.75
2023-05-17T21:43:14.356Z,95110.84
2023-05-17T21:46:00.415Z,95104.56
2023-05-17T21:48:46.341Z,95105.28
2023-05-17T21:51:32.490Z,95107.59
2023-05-17T21:54:18.731Z,95111.03
2023-05-17T21:57:04.848Z,95111.84
2023-05-17T21:59:51.596Z,95105.97
2023-05-17T22:02:37.639Z,95110.22
2023-05-17T22:05:24.116Z,95109.47
2023-05-17T22:08:10.401Z,95114.53
2023-05-17T22:10:57.262Z,95106.31
2023-05-17T22:13:43.199Z,95109.44
2023-05-17T22:16:33.099Z,95111.38
2023-05-17T22:19:21.409Z,95121.94
2023-05-17T22:22:09.532Z,95111.72
2023-05-17T22:24:55.981Z,95114.84
2023-05-17T22:27:42.378Z,95112.53
2023-05-17T22:30:28.967Z,95121.09
2023-05-17T22:33:15.416Z,95110.06
2023-05-17T22:36:04.931Z,95110.94
2023-05-17T22:38:51.038Z,95110.06
2023-05-17T22:41:37.213Z,95105.38
2023-05-17T22:44:23.197Z,95110.06
2023-05-17T22:47:09.399Z,95111.22
2023-05-17T22:49:55.394Z,95110.00
2023-05-17T22:52:42.821Z,95106.50
2023-05-17T22:55:29.443Z,95113.94
2023-05-17T22:58:16.139Z,95105.34
2023-05-17T23:01:02.359Z,95109.22
2023-05-17T23:03:48.449Z,95102.09
2023-05-17T23:06:37.070Z,95109.03
2023-05-17T23:09:23.341Z,95101.19
2023-05-17T23:12:14.138Z,95099.63
2023-05-17T23:15:00.699Z,95100.34
2023-05-17T23:17:47.542Z,95099.50
2023-05-17T23:20:35.140Z,95098.66
2023-05-17T23:23:23.228Z,95099.44
2023-05-17T23:26:43.251Z,95101.66
2023-05-17T23:29:29.584Z,95097.31
2023-05-17T23:32:16.723Z,95098.72
2023-05-17T23:35:05.741Z,95092.38
2023-05-17T23:37:54.715Z,95099.34
2023-05-17T23:40:41.104Z,95095.91
2023-05-17T23:43:26.987Z,95090.34
2023-05-17T23:46:13.841Z,95101.00
2023-05-17T23:48:59.905Z,95100.69
2023-05-17T23:51:46.610Z,95099.50
2023-05-17T23:54:32.468Z,95087.47
2023-05-17T23:57:18.466Z,95098.38
